createdAt,value
2024-03-05T00:00:12.153Z,99.98
2024-03-05T00:02:41.477Z,99.76
2024-03-05T00:05:10.038Z,99.79
2024-03-05T00:07:37.429Z,99.16
2024-03-05T00:10:04.927Z,98.90
2024-03-05T00:12:33.095Z,98.69
2024-03-05T00:15:01.361Z,98.95
2024-03-05T00:17:29.852Z,98.73
2024-03-05T00:19:57.773Z,98.88
2024-03-05T00:22:25.879Z,98.91
2024-03-05T00:24:53.286Z,99.15
2024-03-05T00:27:20.509Z,99.04
2024-03-05T00:29:49.062Z,99.33
2024-03-05T00:32:17.209Z,98.99
2024-03-05T00:34:44.914Z,98.76
2024-03-05T00:37:12.267Z,98.62
2024-03-05T00:39:39.589Z,99.05
2024-03-05T00:42:06.950Z,99.25
2024-03-05T00:44:34.099Z,99.92
2024-03-05T00:47:01.357Z,100.00
2024-03-05T00:49:30.344Z,100.00
2024-03-05T00:51:57.412Z,100.00
2024-03-05T00:54:24.848Z,100.00
2024-03-05T00:56:52.740Z,100.00
2024-03-05T00:59:20.007Z,100.00
2024-03-05T01:01:47.316Z,100.00
2024-03-05T01:04:15.894Z,100.00
2024-03-05T01:06:46.196Z,100.00
2024-03-05T01:09:17.994Z,100.00
2024-03-05T01:11:45.379Z,100.00
2024-03-05T01:14:12.718Z,100.00
2024-03-05T01:16:40.070Z,100.00
2024-03-05T01:19:08.371Z,100.00
2024-03-05T01:21:35.760Z,100.00
2024-03-05T01:24:02.930Z,100.00
2024-03-05T01:26:30.269Z,100.00
2024-03-05T01:28:57.873Z,100.00
2024-03-05T01:31:25.206Z,100.00
2024-03-05T01:33:52.351Z,100.00
2024-03-05T01:36:21.204Z,100.00
2024-03-05T01:38:48.761Z,100.00
2024-03-05T01:41:16.345Z,100.00
2024-03-05T01:43:44.213Z,100.00
2024-03-05T01:46:11.959Z,100.00
2024-03-05T01:48:39.434Z,100.00
2024-03-05T01:51:06.683Z,100.00
2024-03-05T01:53:34.512Z,100.00
2024-03-05T01:56:01.574Z,100.00
2024-03-05T01:58:29.162Z,100.00
2024-03-05T02:00:58.679Z,100.00
2024-03-05T02:03:26.487Z,100.00
2024-03-05T02:06:13.759Z,100.00
2024-03-05T02:08:41.260Z,100.00
2024-03-05T02:11:09.498Z,100.00
2024-03-05T02:13:39.688Z,100.00
2024-03-05T02:16:07.262Z,100.00
2024-03-05T02:18:34.584Z,100.00
2024-03-05T02:21:07.045Z,100.00
2024-03-05T02:23:34.411Z,100.00
2024-03-05T02:26:02.054Z,100.00
2024-03-05T02:28:29.556Z,100.00
2024-03-05T02:30:56.978Z,100.00
2024-03-05T02:33:24.332Z,100.00
2024-03-05T02:35:58.646Z,100.00
2024-03-05T02:38:26.812Z,100.00
2024-03-05T02:40:54.873Z,100.00
2024-03-05T02:43:22.279Z,100.00
2024-03-05T02:45:50.086Z,100.00
2024-03-05T02:48:18.011Z,100.00
2024-03-05T02:50:45.646Z,100.00
2024-03-05T02:53:13.069Z,100.00
2024-03-05T02:55:41.319Z,100.00
2024-03-05T02:58:08.907Z,100.00
2024-03-05T03:00:36.153Z,100.00
2024-03-05T03:03:04.144Z,100.00
2024-03-05T03:05:32.533Z,100.00
2024-03-05T03:07:59.694Z,100.00
2024-03-05T03:10:26.958Z,100.00
2024-03-05T03:12:54.453Z,100.00
2024-03-05T03:15:22.088Z,100.00
2024-03-05T03:17:49.691Z,100.00
2024-03-05T03:20:17.565Z,100.00
2024-03-05T03:22:45.310Z,100.00
2024-03-05T03:25:14.303Z,100.00
2024-03-05T03:27:41.948Z,100.00
2024-03-05T03:30:10.967Z,100.00
2024-03-05T03:32:38.569Z,100.00
2024-03-05T03:35:07.887Z,100.00
2024-03-05T03:37:36.046Z,100.00
2024-03-05T03:40:06.236Z,100.00
2024-03-05T03:42:33.849Z,100.00
2024-03-05T03:45:01.230Z,100.00
2024-03-05T03:47:29.959Z,100.00
2024-03-05T03:49:57.176Z,100.00
2024-03-05T03:52:24.389Z,100.00
2024-03-05T03:54:51.633Z,100.00
2024-03-05T03:57:18.914Z,100.00
2024-03-05T03:59:46.155Z,100.00
2024-03-05T04:02:13.333Z,100.00
2024-03-05T04:04:40.634Z,100.00
2024-03-05T04:07:07.874Z,100.00
2024-03-05T04:09:35.376Z,100.00
2024-03-05T04:12:02.631Z,100.00
2024-03-05T04:14:30.157Z,100.00
2024-03-05T04:16:57.650Z,100.00
2024-03-05T04:19:25.076Z,100.00
2024-03-05T04:21:52.329Z,100.00
2024-03-05T04:24:19.668Z,100.00
2024-03-05T04:26:49.728Z,100.00
2024-03-05T04:29:21.097Z,100.00
2024-03-05T04:32:06.680Z,100.00
2024-03-05T04:34:36.775Z,100.00
2024-03-05T04:37:09.986Z,100.00
2024-03-05T04:39:38.093Z,100.00
2024-03-05T04:42:05.786Z,100.00
2024-03-05T04:44:35.262Z,100.00
2024-03-05T04:47:05.393Z,100.00
2024-03-05T04:49:32.779Z,100.00
2024-03-05T04:52:00.032Z,100.00
2024-03-05T04:54:27.318Z,100.00
2024-03-05T04:56:55.131Z,100.00
2024-03-05T04:59:22.700Z,99.85
2024-03-05T05:01:50.171Z,100.00
2024-03-05T05:04:17.680Z,100.00
2024-03-05T05:06:44.832Z,99.44
2024-03-05T05:09:12.218Z,99.78
2024-03-05T05:11:39.482Z,99.03
2024-03-05T05:14:07.104Z,99.06
2024-03-05T05:16:34.474Z,98.56
2024-03-05T05:19:06.126Z,98.31
2024-03-05T05:21:34.395Z,97.97
2024-03-05T05:24:01.615Z,98.01
2024-03-05T05:26:28.979Z,97.69
2024-03-05T05:28:57.135Z,97.46
2024-03-05T05:31:30.668Z,97.19
2024-03-05T05:33:58.308Z,96.06
2024-03-05T05:36:25.643Z,95.52
2024-03-05T05:38:52.876Z,95.20
2024-03-05T05:41:20.382Z,95.06
2024-03-05T05:43:47.723Z,94.96
2024-03-05T05:46:23.460Z,94.64
2024-03-05T05:48:51.388Z,94.14
2024-03-05T05:51:19.665Z,94.08
2024-03-05T05:53:47.237Z,94.57
2024-03-05T05:56:17.142Z,94.48
2024-03-05T05:58:46.320Z,94.46
2024-03-05T06:01:15.228Z,94.52
2024-03-05T06:03:48.955Z,94.55
2024-03-05T06:06:21.384Z,94.59
2024-03-05T06:08:48.959Z,94.78
2024-03-05T06:11:16.130Z,94.44
2024-03-05T06:13:43.530Z,94.62
2024-03-05T06:16:10.955Z,95.00
2024-03-05T06:18:47.615Z,95.54
2024-03-05T06:21:21.127Z,96.29
2024-03-05T06:23:48.383Z,95.58
2024-03-05T06:26:17.786Z,95.92
2024-03-05T06:28:46.853Z,95.69
2024-03-05T06:31:14.290Z,95.91
2024-03-05T06:33:42.260Z,95.42
2024-03-05T06:36:09.636Z,95.11
2024-03-05T06:38:37.290Z,94.67
2024-03-05T06:41:26.535Z,94.02
2024-03-05T06:44:01.154Z,93.44
2024-03-05T06:46:31.127Z,92.48
2024-03-05T06:49:02.063Z,92.44
2024-03-05T06:51:33.138Z,91.55
2024-03-05T06:54:20.410Z,90.68
2024-03-05T06:56:47.797Z,90.07
2024-03-05T06:59:15.082Z,90.05
2024-03-05T07:01:42.363Z,89.99
2024-03-05T07:04:10.621Z,89.88
2024-03-05T07:06:37.837Z,89.45
2024-03-05T07:09:05.040Z,88.25
2024-03-05T07:11:33.079Z,86.87
2024-03-05T07:14:00.269Z,86.56
2024-03-05T07:16:27.491Z,86.22
2024-03-05T07:18:55.017Z,86.05
2024-03-05T07:21:24.249Z,85.68
2024-03-05T07:23:52.977Z,83.81
2024-03-05T07:26:21.007Z,83.78
2024-03-05T07:28:48.601Z,81.56
2024-03-05T07:31:17.685Z,82.06
2024-03-05T07:33:48.668Z,82.48
2024-03-05T07:36:19.219Z,81.94
2024-03-05T07:38:47.056Z,83.18
2024-03-05T07:41:22.787Z,82.78
2024-03-05T07:43:57.542Z,83.80
2024-03-05T07:46:24.945Z,82.81
2024-03-05T07:48:52.208Z,81.69
2024-03-05T07:51:24.566Z,81.31
2024-03-05T07:53:57.140Z,81.88
2024-03-05T07:56:24.803Z,81.91
2024-03-05T07:58:52.410Z,81.43
2024-03-05T08:01:19.924Z,82.43
2024-03-05T08:03:47.106Z,83.18
2024-03-05T08:06:14.506Z,83.32
2024-03-05T08:08:42.024Z,82.70
2024-03-05T08:11:09.497Z,82.61
2024-03-05T08:13:37.055Z,83.90
2024-03-05T08:16:05.899Z,83.62
2024-03-05T08:18:33.630Z,82.28
2024-03-05T08:21:03.736Z,81.69
2024-03-05T08:23:30.824Z,79.91
2024-03-05T08:25:58.254Z,80.06
2024-03-05T08:28:26.115Z,79.33
2024-03-05T08:30:54.960Z,78.79
2024-03-05T08:33:25.222Z,77.79
2024-03-05T08:35:53.336Z,78.98
2024-03-05T08:38:20.755Z,78.18
2024-03-05T08:40:50.156Z,79.50
2024-03-05T08:43:17.339Z,79.43
2024-03-05T08:45:44.570Z,78.46
2024-03-05T08:48:12.042Z,77.81
2024-03-05T08:50:40.914Z,77.94
2024-03-05T08:53:09.534Z,78.30
2024-03-05T08:55:37.232Z,77.38
2024-03-05T08:58:05.196Z,75.50
2024-03-05T09:00:41.940Z,75.26
2024-03-05T09:03:13.556Z,75.11
2024-03-05T09:05:44.331Z,75.28
2024-03-05T09:08:14.077Z,75.77
2024-03-05T09:10:41.425Z,74.54
2024-03-05T09:13:08.619Z,73.67
2024-03-05T09:15:41.417Z,73.79
2024-03-05T09:18:14.135Z,73.77
2024-03-05T09:20:43.187Z,73.58
2024-03-05T09:23:10.742Z,72.51
2024-03-05T09:25:39.965Z,72.26
2024-03-05T09:28:07.129Z,71.31
2024-03-05T09:30:35.166Z,69.75
2024-03-05T09:33:03.757Z,69.50
2024-03-05T09:35:31.663Z,69.78
2024-03-05T09:37:59.150Z,71.50
2024-03-05T09:40:26.514Z,71.19
2024-03-05T09:42:59.512Z,70.38
2024-03-05T09:45:31.731Z,69.55
2024-03-05T09:47:59.610Z,69.27
2024-03-05T09:50:26.965Z,69.41
2024-03-05T09:52:54.856Z,69.81
2024-03-05T09:55:22.293Z,69.94
2024-03-05T09:57:50.459Z,68.92
2024-03-05T10:00:21.797Z,68.81
2024-03-05T10:02:53.162Z,67.85
2024-03-05T10:05:21.645Z,67.89
2024-03-05T10:07:50.395Z,67.69
2024-03-05T10:10:23.228Z,69.09
2024-03-05T10:12:53.953Z,69.53
2024-03-05T10:15:26.304Z,70.33
2024-03-05T10:17:55.871Z,70.63
2024-03-05T10:20:33.295Z,70.89
2024-03-05T10:23:06.387Z,69.92
2024-03-05T10:25:36.946Z,69.63
2024-03-05T10:28:05.706Z,69.84
2024-03-05T10:30:35.553Z,69.53
2024-03-05T10:33:06.116Z,67.96
2024-03-05T10:35:34.258Z,67.52
2024-03-05T10:38:11.020Z,66.61
2024-03-05T10:40:41.120Z,66.63
2024-03-05T10:43:10.429Z,65.78
2024-03-05T10:45:42.858Z,66.09
2024-03-05T10:48:12.202Z,65.86
2024-03-05T10:50:41.888Z,66.38
2024-03-05T10:53:10.253Z,66.54
2024-03-05T10:55:39.337Z,65.91
2024-03-05T10:58:19.958Z,65.25
2024-03-05T11:00:48.374Z,65.47
2024-03-05T11:03:18.428Z,64.88
2024-03-05T11:05:54.266Z,63.49
2024-03-05T11:08:25.653Z,63.76
2024-03-05T11:11:08.118Z,62.63
2024-03-05T11:13:40.391Z,63.75
2024-03-05T11:16:09.633Z,65.89
2024-03-05T11:18:39.062Z,68.96
2024-03-05T11:21:16.630Z,69.39
2024-03-05T11:23:51.399Z,69.52
2024-03-05T11:26:21.273Z,69.78
2024-03-05T11:28:49.368Z,70.63
2024-03-05T11:31:20.483Z,69.84
2024-03-05T11:34:12.409Z,70.62
2024-03-05T11:36:40.632Z,70.15
2024-03-05T11:39:19.241Z,69.90
2024-03-05T11:41:49.104Z,68.88
2024-03-05T11:44:42.579Z,68.46
2024-03-05T11:47:10.274Z,66.87
2024-03-05T11:49:38.466Z,66.75
2024-03-05T11:52:06.352Z,66.32
2024-03-05T11:54:33.677Z,66.07
2024-03-05T11:57:01.942Z,63.79
2024-03-05T11:59:37.591Z,64.34
2024-03-05T12:02:18.235Z,64.14
2024-03-05T12:04:48.709Z,65.88
2024-03-05T12:07:16.811Z,66.35
2024-03-05T12:09:45.417Z,66.30
2024-03-05T12:12:15.296Z,66.94
2024-03-05T12:14:52.086Z,67.30
2024-03-05T12:17:21.169Z,65.45
2024-03-05T12:20:10.761Z,65.19
2024-03-05T12:22:39.783Z,64.10
2024-03-05T12:25:09.462Z,64.25
2024-03-05T12:27:38.758Z,63.61
2024-03-05T12:30:08.462Z,66.06
2024-03-05T12:32:38.346Z,66.12
2024-03-05T12:35:07.127Z,66.93
2024-03-05T12:37:37.120Z,66.35
2024-03-05T12:40:09.094Z,66.14
2024-03-05T12:42:36.684Z,66.80
2024-03-05T12:45:09.771Z,66.58
2024-03-05T12:47:38.759Z,65.93
2024-03-05T12:50:08.824Z,66.03
2024-03-05T12:52:36.925Z,65.46
2024-03-05T12:55:11.376Z,65.03
2024-03-05T12:57:39.255Z,64.57
2024-03-05T13:00:14.249Z,65.02
2024-03-05T13:02:42.870Z,63.77
2024-03-05T13:05:10.197Z,62.78
2024-03-05T13:07:37.918Z,64.03
2024-03-05T13:10:11.715Z,65.93
2024-03-05T13:12:40.269Z,64.94
2024-03-05T13:15:08.038Z,65.69
2024-03-05T13:17:35.369Z,66.31
2024-03-05T13:20:04.328Z,65.95
2024-03-05T13:22:32.406Z,65.77
2024-03-05T13:24:59.588Z,65.58
2024-03-05T13:27:27.574Z,66.02
2024-03-05T13:30:05.593Z,66.64
2024-03-05T13:32:39.959Z,68.83
2024-03-05T13:35:09.367Z,67.67
2024-03-05T13:37:37.238Z,67.90
2024-03-05T13:40:05.399Z,69.34
2024-03-05T13:42:37.044Z,70.86
2024-03-05T13:45:11.250Z,70.95
2024-03-05T13:47:39.989Z,70.63
2024-03-05T13:50:11.557Z,69.97
2024-03-05T13:52:45.961Z,69.20
2024-03-05T13:55:15.008Z,70.53
2024-03-05T13:57:42.846Z,73.00
2024-03-05T14:00:15.269Z,73.93
2024-03-05T14:02:42.586Z,74.68
2024-03-05T14:05:12.308Z,73.96
2024-03-05T14:07:40.167Z,74.97
2024-03-05T14:10:11.347Z,76.11
2024-03-05T14:12:42.642Z,77.06
2024-03-05T14:15:21.749Z,77.11
2024-03-05T14:17:50.159Z,77.59
2024-03-05T14:20:21.365Z,78.84
2024-03-05T14:22:48.739Z,77.95
2024-03-05T14:25:18.408Z,77.83
2024-03-05T14:27:48.778Z,79.82
2024-03-05T14:30:19.575Z,80.56
2024-03-05T14:32:47.746Z,80.69
2024-03-05T14:35:15.210Z,80.91
2024-03-05T14:37:43.899Z,82.18
2024-03-05T14:40:12.188Z,83.51
2024-03-05T14:42:39.511Z,84.12
2024-03-05T14:45:07.667Z,84.32
2024-03-05T14:47:35.071Z,84.38
2024-03-05T14:50:02.558Z,84.26
2024-03-05T14:52:31.357Z,83.04
2024-03-05T14:54:58.560Z,83.56
2024-03-05T14:57:27.803Z,83.71
2024-03-05T14:59:55.040Z,83.86
2024-03-05T15:02:22.444Z,85.05
2024-03-05T15:04:49.834Z,84.54
2024-03-05T15:07:17.232Z,84.99
2024-03-05T15:09:44.371Z,87.06
2024-03-05T15:12:11.734Z,85.35
2024-03-05T15:14:43.492Z,84.54
2024-03-05T15:17:11.995Z,86.15
2024-03-05T15:19:39.245Z,86.67
2024-03-05T15:22:07.631Z,87.02
2024-03-05T15:24:34.890Z,86.85
2024-03-05T15:27:05.956Z,86.30
2024-03-05T15:29:33.867Z,85.65
2024-03-05T15:32:02.425Z,84.42
2024-03-05T15:34:30.375Z,84.28
2024-03-05T15:36:57.759Z,84.94
2024-03-05T15:39:25.229Z,86.52
2024-03-05T15:41:52.630Z,86.69
2024-03-05T15:44:19.830Z,87.52
2024-03-05T15:46:48.716Z,87.92
2024-03-05T15:49:16.182Z,87.79
2024-03-05T15:51:44.052Z,87.85
2024-03-05T15:54:11.662Z,86.59
2024-03-05T15:56:58.753Z,86.24
2024-03-05T15:59:44.707Z,85.90
2024-03-05T16:02:12.185Z,85.48
2024-03-05T16:04:57.638Z,85.12
2024-03-05T16:07:27.689Z,86.11
2024-03-05T16:09:55.065Z,86.00
2024-03-05T16:12:25.421Z,85.41
2024-03-05T16:14:53.807Z,84.99
2024-03-05T16:17:22.068Z,85.41
2024-03-05T16:19:49.248Z,85.67
2024-03-05T16:22:16.482Z,85.79
2024-03-05T16:24:44.567Z,86.00
2024-03-05T16:27:11.686Z,86.29
2024-03-05T16:29:38.812Z,87.48
2024-03-05T16:32:06.431Z,87.28
2024-03-05T16:34:33.581Z,87.81
2024-03-05T16:37:00.745Z,87.45
2024-03-05T16:39:27.825Z,86.36
2024-03-05T16:41:55.001Z,86.71
2024-03-05T16:44:23.716Z,86.31
2024-03-05T16:46:51.661Z,85.88
2024-03-05T16:49:19.165Z,85.30
2024-03-05T16:51:46.480Z,85.56
2024-03-05T16:54:15.621Z,86.49
2024-03-05T16:56:45.281Z,87.06
2024-03-05T16:59:13.951Z,86.70
2024-03-05T17:01:41.245Z,87.14
2024-03-05T17:04:14.537Z,87.65
2024-03-05T17:06:44.422Z,88.33
2024-03-05T17:09:12.625Z,88.82
2024-03-05T17:11:39.965Z,88.51
2024-03-05T17:14:08.343Z,88.77
2024-03-05T17:16:41.559Z,89.50
2024-03-05T17:19:11.412Z,89.71
2024-03-05T17:21:38.816Z,90.45
2024-03-05T17:24:06.422Z,89.67
2024-03-05T17:26:33.698Z,89.05
2024-03-05T17:29:06.654Z,89.37
2024-03-05T17:31:34.949Z,90.44
2024-03-05T17:34:02.535Z,90.75
2024-03-05T17:36:30.874Z,90.47
2024-03-05T17:38:58.195Z,90.62
2024-03-05T17:41:25.413Z,90.49
2024-03-05T17:43:53.027Z,90.99
2024-03-05T17:46:20.989Z,91.34
2024-03-05T17:48:48.312Z,91.22
2024-03-05T17:51:15.556Z,91.01
2024-03-05T17:53:44.058Z,91.17
2024-03-05T17:56:13.511Z,90.18
2024-03-05T17:58:41.403Z,90.56
2024-03-05T18:01:12.912Z,90.71
2024-03-05T18:03:40.400Z,90.18
2024-03-05T18:06:07.859Z,90.21
2024-03-05T18:08:35.029Z,90.47
2024-03-05T18:11:02.501Z,90.55
2024-03-05T18:13:29.760Z,90.20
2024-03-05T18:15:57.437Z,89.93
2024-03-05T18:18:24.935Z,90.10
2024-03-05T18:20:52.101Z,89.85
2024-03-05T18:23:19.611Z,89.48
2024-03-05T18:25:49.687Z,89.57
2024-03-05T18:28:21.817Z,89.56
2024-03-05T18:30:50.005Z,89.35
2024-03-05T18:33:18.290Z,89.40
2024-03-05T18:35:46.721Z,89.01
2024-03-05T18:38:24.017Z,89.58
2024-03-05T18:41:01.276Z,90.53
2024-03-05T18:43:30.242Z,91.95
2024-03-05T18:46:00.672Z,92.91
2024-03-05T18:48:28.835Z,93.37
2024-03-05T18:50:57.706Z,93.72
2024-03-05T18:53:32.651Z,93.61
2024-03-05T18:56:07.819Z,93.05
2024-03-05T18:58:35.389Z,93.50
2024-03-05T19:01:04.371Z,94.38
2024-03-05T19:03:31.938Z,94.78
2024-03-05T19:05:59.333Z,95.84
2024-03-05T19:08:26.551Z,96.73
2024-03-05T19:10:54.526Z,96.24
2024-03-05T19:13:21.820Z,95.44
2024-03-05T19:15:49.270Z,95.74
2024-03-05T19:18:16.485Z,96.41
2024-03-05T19:20:43.674Z,97.30
2024-03-05T19:23:10.868Z,98.39
2024-03-05T19:25:38.064Z,97.34
2024-03-05T19:28:05.888Z,96.27
2024-03-05T19:30:33.114Z,97.13
2024-03-05T19:33:00.811Z,97.23
2024-03-05T19:35:28.054Z,96.91
2024-03-05T19:37:57.534Z,96.50
2024-03-05T19:40:26.824Z,96.64
2024-03-05T19:42:58.236Z,96.42
2024-03-05T19:45:27.827Z,96.40
2024-03-05T19:47:55.393Z,95.81
2024-03-05T19:50:24.506Z,95.82
2024-03-05T19:52:55.609Z,96.31
2024-03-05T19:55:23.741Z,97.17
2024-03-05T19:57:51.398Z,97.28
2024-03-05T20:00:25.110Z,97.21
2024-03-05T20:02:54.291Z,97.30
2024-03-05T20:05:23.203Z,97.06
2024-03-05T20:07:53.076Z,97.03
2024-03-05T20:10:23.042Z,96.90
2024-03-05T20:12:50.706Z,96.90
2024-03-05T20:15:17.967Z,97.43
2024-03-05T20:17:45.373Z,97.08
2024-03-05T20:20:18.365Z,97.13
2024-03-05T20:22:48.056Z,97.74
2024-03-05T20:25:19.297Z,98.33
2024-03-05T20:27:51.390Z,98.39
2024-03-05T20:30:19.473Z,97.80
2024-03-05T20:32:47.429Z,98.51
2024-03-05T20:35:24.172Z,100.00
2024-03-05T20:37:52.577Z,100.00
2024-03-05T20:40:21.318Z,100.00
2024-03-05T20:42:49.047Z,100.00
2024-03-05T20:45:17.345Z,100.00
2024-03-05T20:47:44.842Z,99.55
2024-03-05T20:50:12.736Z,99.63
2024-03-05T20:52:40.299Z,99.74
2024-03-05T20:55:10.017Z,100.00
2024-03-05T20:57:39.074Z,100.00
2024-03-05T21:00:13.606Z,100.00
2024-03-05T21:02:42.311Z,100.00
2024-03-05T21:05:11.476Z,100.00
2024-03-05T21:07:39.565Z,100.00
2024-03-05T21:10:11.201Z,100.00
2024-03-05T21:12:40.291Z,100.00
2024-03-05T21:15:12.327Z,100.00
2024-03-05T21:17:41.402Z,100.00
2024-03-05T21:20:13.378Z,100.00
2024-03-05T21:22:43.646Z,100.00
2024-03-05T21:25:11.791Z,100.00
2024-03-05T21:27:40.873Z,99.96
2024-03-05T21:30:09.859Z,100.00
2024-03-05T21:32:37.456Z,100.00
2024-03-05T21:35:07.103Z,100.00
2024-03-05T21:37:36.480Z,100.00
2024-03-05T21:40:06.364Z,100.00
2024-03-05T21:42:34.171Z,100.00
2024-03-05T21:45:02.046Z,100.00
2024-03-05T21:47:32.187Z,100.00
2024-03-05T21:50:00.984Z,100.00
2024-03-05T21:52:31.751Z,100.00
2024-03-05T21:54:58.948Z,100.00
2024-03-05T21:57:26.060Z,100.00
2024-03-05T21:59:53.326Z,100.00
2024-03-05T22:02:20.518Z,100.00
2024-03-05T22:04:47.891Z,99.78
2024-03-05T22:07:14.980Z,100.00
2024-03-05T22:09:42.155Z,100.00
2024-03-05T22:12:09.504Z,100.00
2024-03-05T22:14:36.737Z,100.00
2024-03-05T22:17:09.114Z,100.00
2024-03-05T22:19:37.699Z,100.00
2024-03-05T22:22:04.919Z,99.83
2024-03-05T22:24:33.023Z,100.00
2024-03-05T22:27:00.142Z,100.00
2024-03-05T22:29:27.755Z,100.00
2024-03-05T22:31:55.588Z,100.00
2024-03-05T22:34:22.917Z,100.00
2024-03-05T22:36:50.156Z,100.00
2024-03-05T22:39:18.055Z,100.00
2024-03-05T22:41:45.447Z,100.00
2024-03-05T22:44:12.903Z,100.00
2024-03-05T22:46:40.310Z,100.00
2024-03-05T22:49:07.425Z,100.00
2024-03-05T22:51:35.965Z,100.00
2024-03-05T22:54:03.669Z,100.00
2024-03-05T22:56:31.134Z,100.00
2024-03-05T22:58:59.611Z,100.00
2024-03-05T23:01:27.475Z,100.00
2024-03-05T23:03:54.866Z,100.00
2024-03-05T23:06:25.505Z,100.00
2024-03-05T23:08:55.116Z,100.00
2024-03-05T23:11:22.495Z,100.00
2024-03-05T23:13:49.847Z,100.00
2024-03-05T23:16:17.282Z,100.00
2024-03-05T23:18:44.583Z,99.42
2024-03-05T23:21:12.802Z,100.00
2024-03-05T23:23:43.697Z,100.00
2024-03-05T23:26:11.401Z,100.00
2024-03-05T23:28:40.155Z,99.79
2024-03-05T23:31:07.912Z,99.87
2024-03-05T23:33:36.094Z,100.00
2024-03-05T23:36:03.764Z,100.00
2024-03-05T23:38:32.386Z,100.00
2024-03-05T23:41:00.698Z,100.00
2024-03-05T23:43:27.961Z,100.00
2024-03-05T23:45:57.957Z,100.00
2024-03-05T23:48:25.201Z,100.00
2024-03-05T23:50:52.267Z,100.00
2024-03-05T23:53:19.656Z,100.00
2024-03-05T23:55:46.991Z,100.00
2024-03-05T23:58:14.133Z,100.00
